sensor_id;sensor_type;location;lat;lon;timestamp;temperature;humidity
22558;DHT22;11445;53.816;8.902;2024-03-23T00:55:20;6.70;99.90
22558;DHT22;11445;53.816;8.902;2024-03-23T00:57:47;6.70;99.90
22558;DHT22;11445;53.816;8.902;2024-03-23T01:00:14;6.70;99.90
22558;DHT22;11445;53.816;8.902;2024-03-23T01:02:41;6.70;99.90
22558;DHT22;11445;53.816;8.902;2024-03-23T01:05:08;6.60;99.90
22558;DHT22;11445;53.816;8.902;2024-03-23T01:07:35;6.70;99.90
22558;DHT22;11445;53.816;8.902;2024-03-23T01:10:02;6.60;99.90
22558;DHT22;11445;53.816;8.902;2024-03-23T01:12:29;6.60;99.90
22558;DHT22;11445;53.816;8.902;2024-03-23T01:14:55;6.70;99.90
22558;DHT22;11445;53.816;8.902;2024-03-23T01:17:22;6.70;99.90
22558;DHT22;11445;53.816;8.902;2024-03-23T01:19:48;6.70;99.90
22558;DHT22;11445;53.816;8.902;2024-03-23T01:22:15;6.70;99.90
22558;DHT22;11445;53.816;8.902;2024-03-23T01:24:41;6.70;99.90
22558;DHT22;11445;53.816;8.902;2024-03-23T01:27:10;6.60;99.90
22558;DHT22;11445;53.816;8.902;2024-03-23T01:29:36;6.60;99.90
22558;DHT22;11445;53.816;8.902;2024-03-23T01:32:03;6.60;99.90
22558;DHT22;11445;53.816;8.902;2024-03-23T01:34:29;6.60;99.90
22558;DHT22;11445;53.816;8.902;2024-03-23T01:36:56;6.60;99.90
22558;DHT22;11445;53.816;8.902;2024-03-23T01:39:22;6.60;99.90
22558;DHT22;11445;53.816;8.902;2024-03-23T01:41:49;6.70;99.90
22558;DHT22;11445;53.816;8.902;2024-03-23T01:44:17;6.60;99.90
22558;DHT22;11445;53.816;8.902;2024-03-23T01:46:44;6.60;99.90
22558;DHT22;11445;53.816;8.902;2024-03-23T01:49:10;6.60;99.90
22558;DHT22;11445;53.816;8.902;2024-03-23T01:51:38;6.60;99.90
22558;DHT22;11445;53.816;8.902;2024-03-23T01:54:04;6.60;99.90
22558;DHT22;11445;53.816;8.902;2024-03-23T01:56:33;6.50;99.90
22558;DHT22;11445;53.816;8.902;2024-03-23T01:59:00;6.60;99.90
22558;DHT22;11445;53.816;8.902;2024-03-23T02:01:29;6.50;99.90
22558;DHT22;11445;53.816;8.902;2024-03-23T02:03:57;6.50;99.90
22558;DHT22;11445;53.816;8.902;2024-03-23T02:06:24;6.50;99.90
22558;DHT22;11445;53.816;8.902;2024-03-23T02:08:50;6.40;99.90
22558;DHT22;11445;53.816;8.902;2024-03-23T02:11:18;6.40;99.90
22558;DHT22;11445;53.816;8.902;2024-03-23T02:13:43;6.50;99.90
22558;DHT22;11445;53.816;8.902;2024-03-23T02:16:10;6.40;99.90
22558;DHT22;11445;53.816;8.902;2024-03-23T02:18:38;6.40;99.90
22558;DHT22;11445;53.816;8.902;2024-03-23T02:21:05;6.40;99.90
22558;DHT22;11445;53.816;8.902;2024-03-23T02:23:32;6.50;99.90
22558;DHT22;11445;53.816;8.902;2024-03-23T02:25:59;6.40;99.90
22558;DHT22;11445;53.816;8.902;2024-03-23T02:28:25;6.40;99.90
22558;DHT22;11445;53.816;8.902;2024-03-23T02:30:52;6.40;99.90
22558;DHT22;11445;53.816;8.902;2024-03-23T02:33:18;6.40;99.90
22558;DHT22;11445;53.816;8.902;2024-03-23T02:35:46;6.30;99.90
22558;DHT22;11445;53.816;8.902;2024-03-23T02:38:12;6.30;99.90
22558;DHT22;11445;53.816;8.902;2024-03-23T02:40:41;6.30;99.90
22558;DHT22;11445;53.816;8.902;2024-03-23T02:43:07;6.20;99.90
22558;DHT22;11445;53.816;8.902;2024-03-23T02:45:34;6.20;99.90
22558;DHT22;11445;53.816;8.902;2024-03-23T02:48:00;6.20;99.90
22558;DHT22;11445;53.816;8.902;2024-03-23T02:50:27;6.10;99.90
22558;DHT22;11445;53.816;8.902;2024-03-23T02:52:53;6.10;99.90
22558;DHT22;11445;53.816;8.902;2024-03-23T02:55:20;6.10;99.90
22558;DHT22;11445;53.816;8.902;2024-03-23T02:57:47;6.00;99.90
22558;DHT22;11445;53.816;8.902;2024-03-23T03:00:14;6.10;99.90
22558;DHT22;11445;53.816;8.902;2024-03-23T03:02:40;6.00;99.90
22558;DHT22;11445;53.816;8.902;2024-03-23T03:05:07;6.00;99.90
22558;DHT22;11445;53.816;8.902;2024-03-23T03:07:34;6.00;99.90
22558;DHT22;11445;53.816;8.902;2024-03-23T03:10:04;6.00;99.90
22558;DHT22;11445;53.816;8.902;2024-03-23T03:12:32;6.00;99.90
22558;DHT22;11445;53.816;8.902;2024-03-23T03:15:00;6.00;99.90
22558;DHT22;11445;53.816;8.902;2024-03-23T03:17:26;5.90;99.90
22558;DHT22;11445;53.816;8.902;2024-03-23T03:19:53;5.90;99.90
22558;DHT22;11445;53.816;8.902;2024-03-23T03:22:21;5.90;99.90
22558;DHT22;11445;53.816;8.902;2024-03-23T03:24:48;5.90;99.90
22558;DHT22;11445;53.816;8.902;2024-03-23T03:27:14;5.90;99.90
22558;DHT22;11445;53.816;8.902;2024-03-23T03:29:41;5.80;99.90
22558;DHT22;11445;53.816;8.902;2024-03-23T03:32:09;5.80;99.90
22558;DHT22;11445;53.816;8.902;2024-03-23T03:34:36;5.80;99.90
22558;DHT22;11445;53.816;8.902;2024-03-23T03:37:02;5.70;99.90
22558;DHT22;11445;53.816;8.902;2024-03-23T03:39:29;5.70;99.90
22558;DHT22;11445;53.816;8.902;2024-03-23T03:41:55;5.70;99.90
22558;DHT22;11445;53.816;8.902;2024-03-23T03:44:22;5.70;99.90
22558;DHT22;11445;53.816;8.902;2024-03-23T03:46:48;5.70;99.90
22558;DHT22;11445;53.816;8.902;2024-03-23T03:49:16;5.70;99.90
22558;DHT22;11445;53.816;8.902;2024-03-23T03:51:42;5.70;99.90
22558;DHT22;11445;53.816;8.902;2024-03-23T03:54:09;5.60;99.90
22558;DHT22;11445;53.816;8.902;2024-03-23T03:56:35;5.70;99.90
22558;DHT22;11445;53.816;8.902;2024-03-23T03:59:02;5.70;99.90
22558;DHT22;11445;53.816;8.902;2024-03-23T04:01:28;5.70;99.90
22558;DHT22;11445;53.816;8.902;2024-03-23T04:03:55;5.70;99.90
22558;DHT22;11445;53.816;8.902;2024-03-23T04:06:22;5.70;99.90
22558;DHT22;11445;53.816;8.902;2024-03-23T04:08:49;5.60;99.90
22558;DHT22;11445;53.816;8.902;2024-03-23T04:11:15;5.60;99.90
22558;DHT22;11445;53.816;8.902;2024-03-23T04:13:42;5.60;99.90
22558;DHT22;11445;53.816;8.902;2024-03-23T04:16:08;5.60;99.90
22558;DHT22;11445;53.816;8.902;2024-03-23T04:18:35;5.60;99.90
22558;DHT22;11445;53.816;8.902;2024-03-23T04:21:02;5.60;99.90
22558;DHT22;11445;53.816;8.902;2024-03-23T04:23:30;5.60;99.90
22558;DHT22;11445;53.816;8.902;2024-03-23T04:25:57;5.60;99.90
22558;DHT22;11445;53.816;8.902;2024-03-23T04:28:28;5.60;99.90
22558;DHT22;11445;53.816;8.902;2024-03-23T04:30:54;5.50;99.90
22558;DHT22;11445;53.816;8.902;2024-03-23T04:33:21;5.50;99.90
22558;DHT22;11445;53.816;8.902;2024-03-23T04:35:49;5.50;99.90
22558;DHT22;11445;53.816;8.902;2024-03-23T04:38:16;5.50;99.90
22558;DHT22;11445;53.816;8.902;2024-03-23T04:40:44;5.50;99.90
22558;DHT22;11445;53.816;8.902;2024-03-23T04:43:11;5.50;99.90
22558;DHT22;11445;53.816;8.902;2024-03-23T04:45:39;5.50;99.90
22558;DHT22;11445;53.816;8.902;2024-03-23T04:48:07;5.50;99.90
22558;DHT22;11445;53.816;8.902;2024-03-23T04:50:34;5.50;99.90
22558;DHT22;11445;53.816;8.902;2024-03-23T04:53:01;5.50;99.90
22558;DHT22;11445;53.816;8.902;2024-03-23T04:55:28;5.50;99.90
22558;DHT22;11445;53.816;8.902;2024-03-23T04:57:56;5.40;99.90
22558;DHT22;11445;53.816;8.902;2024-03-23T05:00:22;5.40;99.90
22558;DHT22;11445;53.816;8.902;2024-03-23T05:02:50;5.40;99.90
22558;DHT22;11445;53.816;8.902;2024-03-23T05:05:18;5.40;99.90
22558;DHT22;11445;53.816;8.902;2024-03-23T05:07:44;5.40;99.90
22558;DHT22;11445;53.816;8.902;2024-03-23T05:10:11;5.40;99.90
22558;DHT22;11445;53.816;8.902;2024-03-23T05:12:39;5.40;99.90
22558;DHT22;11445;53.816;8.902;2024-03-23T05:15:07;5.40;99.90
22558;DHT22;11445;53.816;8.902;2024-03-23T05:17:34;5.40;99.90
22558;DHT22;11445;53.816;8.902;2024-03-23T05:20:02;5.40;99.90
22558;DHT22;11445;53.816;8.902;2024-03-23T05:22:29;5.40;99.90
22558;DHT22;11445;53.816;8.902;2024-03-23T05:24:56;5.40;99.90
22558;DHT22;11445;53.816;8.902;2024-03-23T05:27:22;5.30;99.90
22558;DHT22;11445;53.816;8.902;2024-03-23T05:29:49;5.30;99.90
22558;DHT22;11445;53.816;8.902;2024-03-23T05:32:17;5.40;99.90
22558;DHT22;11445;53.816;8.902;2024-03-23T05:34:44;5.30;99.90
22558;DHT22;11445;53.816;8.902;2024-03-23T05:37:10;5.30;99.90
22558;DHT22;11445;53.816;8.902;2024-03-23T05:39:37;5.30;99.90
22558;DHT22;11445;53.816;8.902;2024-03-23T05:42:03;5.30;99.90
22558;DHT22;11445;53.816;8.902;2024-03-23T05:44:30;5.30;99.90
22558;DHT22;11445;53.816;8.902;2024-03-23T05:46:57;5.30;99.90
22558;DHT22;11445;53.816;8.902;2024-03-23T05:49:25;5.30;99.90
22558;DHT22;11445;53.816;8.902;2024-03-23T05:51:51;5.30;99.90
22558;DHT22;11445;53.816;8.902;2024-03-23T05:54:18;5.30;99.90
22558;DHT22;11445;53.816;8.902;2024-03-23T05:56:44;5.30;99.90
22558;DHT22;11445;53.816;8.902;2024-03-23T05:59:11;5.30;99.90
22558;DHT22;11445;53.816;8.902;2024-03-23T06:01:37;5.30;99.90
22558;DHT22;11445;53.816;8.902;2024-03-23T06:04:04;5.30;99.90
22558;DHT22;11445;53.816;8.902;2024-03-23T06:06:32;5.30;99.90
22558;DHT22;11445;53.816;8.902;2024-03-23T06:08:59;5.30;99.90
22558;DHT22;11445;53.816;8.902;2024-03-23T06:11:25;5.30;99.90
22558;DHT22;11445;53.816;8.902;2024-03-23T06:13:52;5.40;99.90
22558;DHT22;11445;53.816;8.902;2024-03-23T06:16:18;5.40;99.90
22558;DHT22;11445;53.816;8.902;2024-03-23T06:18:49;5.40;99.90
22558;DHT22;11445;53.816;8.902;2024-03-23T06:21:17;5.50;99.90
22558;DHT22;11445;53.816;8.902;2024-03-23T06:23:46;5.50;99.90
22558;DHT22;11445;53.816;8.902;2024-03-23T06:26:16;5.60;99.90
22558;DHT22;11445;53.816;8.902;2024-03-23T06:28:43;5.60;99.90
22558;DHT22;11445;53.816;8.902;2024-03-23T06:31:10;5.70;99.90
22558;DHT22;11445;53.816;8.902;2024-03-23T06:33:37;5.70;99.90
22558;DHT22;11445;53.816;8.902;2024-03-23T06:36:03;5.80;99.90
22558;DHT22;11445;53.816;8.902;2024-03-23T06:38:31;5.90;99.90
22558;DHT22;11445;53.816;8.902;2024-03-23T06:40:58;6.00;99.90
22558;DHT22;11445;53.816;8.902;2024-03-23T06:43:25;6.10;99.90
22558;DHT22;11445;53.816;8.902;2024-03-23T06:45:54;6.10;99.90
22558;DHT22;11445;53.816;8.902;2024-03-23T06:48:21;6.10;99.90
22558;DHT22;11445;53.816;8.902;2024-03-23T06:50:48;6.20;99.90
22558;DHT22;11445;53.816;8.902;2024-03-23T06:53:15;6.20;99.90
22558;DHT22;11445;53.816;8.902;2024-03-23T06:55:41;6.30;99.90
22558;DHT22;11445;53.816;8.902;2024-03-23T06:58:10;6.30;99.90
22558;DHT22;11445;53.816;8.902;2024-03-23T07:00:39;6.40;99.90
22558;DHT22;11445;53.816;8.902;2024-03-23T07:03:06;6.40;99.90
22558;DHT22;11445;53.816;8.902;2024-03-23T07:05:32;6.60;99.90
22558;DHT22;11445;53.816;8.902;2024-03-23T07:07:59;6.70;99.90
22558;DHT22;11445;53.816;8.902;2024-03-23T07:10:25;6.80;99.90
22558;DHT22;11445;53.816;8.902;2024-03-23T07:12:52;6.80;99.90
22558;DHT22;11445;53.816;8.902;2024-03-23T07:15:19;6.90;99.90
22558;DHT22;11445;53.816;8.902;2024-03-23T07:17:46;6.90;99.90
22558;DHT22;11445;53.816;8.902;2024-03-23T07:20:13;7.00;99.90
22558;DHT22;11445;53.816;8.902;2024-03-23T07:22:40;7.00;99.90
22558;DHT22;11445;53.816;8.902;2024-03-23T07:25:06;7.10;99.90
22558;DHT22;11445;53.816;8.902;2024-03-23T07:27:33;7.10;99.90
22558;DHT22;11445;53.816;8.902;2024-03-23T07:30:00;7.10;99.90
22558;DHT22;11445;53.816;8.902;2024-03-23T07:32:28;7.20;99.90
22558;DHT22;11445;53.816;8.902;2024-03-23T07:34:54;7.10;99.90
22558;DHT22;11445;53.816;8.902;2024-03-23T07:37:21;7.20;99.90
22558;DHT22;11445;53.816;8.902;2024-03-23T07:39:47;7.30;99.90
22558;DHT22;11445;53.816;8.902;2024-03-23T07:42:14;7.30;99.90
22558;DHT22;11445;53.816;8.902;2024-03-23T07:44:40;7.40;99.90
22558;DHT22;11445;53.816;8.902;2024-03-23T07:47:07;7.50;99.90
22558;DHT22;11445;53.816;8.902;2024-03-23T07:49:34;7.50;99.90
22558;DHT22;11445;53.816;8.902;2024-03-23T07:52:01;7.50;99.90
22558;DHT22;11445;53.816;8.902;2024-03-23T07:54:27;7.50;99.90
22558;DHT22;11445;53.816;8.902;2024-03-23T07:56:54;7.50;99.90
22558;DHT22;11445;53.816;8.902;2024-03-23T07:59:20;7.40;99.90
22558;DHT22;11445;53.816;8.902;2024-03-23T08:01:47;7.40;99.90
22558;DHT22;11445;53.816;8.902;2024-03-23T08:04:15;7.40;99.90
22558;DHT22;11445;53.816;8.902;2024-03-23T08:06:42;7.50;99.90
22558;DHT22;11445;53.816;8.902;2024-03-23T08:09:09;7.50;99.90
22558;DHT22;11445;53.816;8.902;2024-03-23T08:11:35;7.50;99.90
22558;DHT22;11445;53.816;8.902;2024-03-23T08:14:03;7.60;99.90
22558;DHT22;11445;53.816;8.902;2024-03-23T08:16:30;7.60;99.90
22558;DHT22;11445;53.816;8.902;2024-03-23T08:18:57;7.60;99.90
22558;DHT22;11445;53.816;8.902;2024-03-23T08:21:23;7.70;99.90
22558;DHT22;11445;53.816;8.902;2024-03-23T08:23:52;7.80;99.90
22558;DHT22;11445;53.816;8.902;2024-03-23T08:26:18;7.90;99.90
22558;DHT22;11445;53.816;8.902;2024-03-23T08:28:45;7.90;99.90
22558;DHT22;11445;53.816;8.902;2024-03-23T08:31:12;8.00;99.90
22558;DHT22;11445;53.816;8.902;2024-03-23T08:33:40;8.00;99.90
22558;DHT22;11445;53.816;8.902;2024-03-23T08:36:09;8.00;99.90
22558;DHT22;11445;53.816;8.902;2024-03-23T08:38:37;8.20;99.90
22558;DHT22;11445;53.816;8.902;2024-03-23T08:41:06;8.10;99.90
22558;DHT22;11445;53.816;8.902;2024-03-23T08:43:36;8.10;99.90
22558;DHT22;11445;53.816;8.902;2024-03-23T08:46:06;8.20;99.90
22558;DHT22;11445;53.816;8.902;2024-03-23T08:48:34;8.20;99.90
22558;DHT22;11445;53.816;8.902;2024-03-23T08:51:01;8.30;99.90
22558;DHT22;11445;53.816;8.902;2024-03-23T08:53:29;8.30;99.90
22558;DHT22;11445;53.816;8.902;2024-03-23T08:55:55;8.40;99.90
22558;DHT22;11445;53.816;8.902;2024-03-23T08:58:25;8.30;99.90
22558;DHT22;11445;53.816;8.902;2024-03-23T09:00:51;8.30;99.90
22558;DHT22;11445;53.816;8.902;2024-03-23T09:03:18;8.30;99.90
22558;DHT22;11445;53.816;8.902;2024-03-23T09:05:45;8.30;99.90
22558;DHT22;11445;53.816;8.902;2024-03-23T09:08:12;8.40;99.90
22558;DHT22;11445;53.816;8.902;2024-03-23T09:10:39;8.30;99.90
22558;DHT22;11445;53.816;8.902;2024-03-23T09:13:06;8.40;99.90
22558;DHT22;11445;53.816;8.902;2024-03-23T09:15:35;8.40;99.90
22558;DHT22;11445;53.816;8.902;2024-03-23T09:18:02;8.40;99.90
22558;DHT22;11445;53.816;8.902;2024-03-23T09:20:32;8.40;99.90
22558;DHT22;11445;53.816;8.902;2024-03-23T09:22:59;8.50;99.90
22558;DHT22;11445;53.816;8.902;2024-03-23T09:25:25;8.50;99.90
22558;DHT22;11445;53.816;8.902;2024-03-23T09:27:52;8.50;99.90
22558;DHT22;11445;53.816;8.902;2024-03-23T09:30:18;8.50;99.90
22558;DHT22;11445;53.816;8.902;2024-03-23T09:32:48;8.50;99.90
22558;DHT22;11445;53.816;8.902;2024-03-23T09:35:14;8.50;99.90
22558;DHT22;11445;53.816;8.902;2024-03-23T09:37:41;8.50;99.90
22558;DHT22;11445;53.816;8.902;2024-03-23T09:40:09;8.60;99.90
22558;DHT22;11445;53.816;8.902;2024-03-23T09:42:37;8.50;99.90
22558;DHT22;11445;53.816;8.902;2024-03-23T09:45:05;8.50;99.90
22558;DHT22;11445;53.816;8.902;2024-03-23T09:47:34;8.50;99.90
22558;DHT22;11445;53.816;8.902;2024-03-23T09:50:03;8.60;99.90
22558;DHT22;11445;53.816;8.902;2024-03-23T09:52:31;8.70;99.90
22558;DHT22;11445;53.816;8.902;2024-03-23T09:54:57;8.70;99.90
22558;DHT22;11445;53.816;8.902;2024-03-23T09:57:24;8.70;99.90
22558;DHT22;11445;53.816;8.902;2024-03-23T09:59:50;8.80;99.90
22558;DHT22;11445;53.816;8.902;2024-03-23T10:02:17;8.70;99.90
22558;DHT22;11445;53.816;8.902;2024-03-23T10:04:46;8.80;99.90
22558;DHT22;11445;53.816;8.902;2024-03-23T10:07:15;8.90;99.90
22558;DHT22;11445;53.816;8.902;2024-03-23T10:09:42;9.00;99.90
22558;DHT22;11445;53.816;8.902;2024-03-23T10:12:10;9.10;99.90
22558;DHT22;11445;53.816;8.902;2024-03-23T10:14:37;9.10;99.90
22558;DHT22;11445;53.816;8.902;2024-03-23T10:17:13;9.00;99.90
22558;DHT22;11445;53.816;8.902;2024-03-23T10:19:40;9.00;99.90
22558;DHT22;11445;53.816;8.902;2024-03-23T10:22:08;9.00;99.90
22558;DHT22;11445;53.816;8.902;2024-03-23T10:24:36;9.10;99.90
22558;DHT22;11445;53.816;8.902;2024-03-23T10:27:03;9.20;99.90
22558;DHT22;11445;53.816;8.902;2024-03-23T10:29:29;9.30;99.90
22558;DHT22;11445;53.816;8.902;2024-03-23T10:32:08;9.30;99.90
22558;DHT22;11445;53.816;8.902;2024-03-23T10:34:34;9.20;99.90
22558;DHT22;11445;53.816;8.902;2024-03-23T10:37:02;9.10;99.90
22558;DHT22;11445;53.816;8.902;2024-03-23T10:39:31;9.10;99.90
22558;DHT22;11445;53.816;8.902;2024-03-23T10:42:01;8.90;99.90
22558;DHT22;11445;53.816;8.902;2024-03-23T10:44:28;8.80;99.90
22558;DHT22;11445;53.816;8.902;2024-03-23T10:46:57;8.80;99.90
22558;DHT22;11445;53.816;8.902;2024-03-23T10:49:26;8.90;99.90
22558;DHT22;11445;53.816;8.902;2024-03-23T10:51:56;8.90;99.90
22558;DHT22;11445;53.816;8.902;2024-03-23T10:54:24;8.90;99.90
22558;DHT22;11445;53.816;8.902;2024-03-23T10:56:55;8.90;99.90
22558;DHT22;11445;53.816;8.902;2024-03-23T10:59:24;8.70;99.90
22558;DHT22;11445;53.816;8.902;2024-03-23T11:01:55;8.60;99.90
22558;DHT22;11445;53.816;8.902;2024-03-23T11:04:31;8.50;99.90
22558;DHT22;11445;53.816;8.902;2024-03-23T11:06:58;8.50;99.90
22558;DHT22;11445;53.816;8.902;2024-03-23T11:09:41;8.50;99.90
22558;DHT22;11445;53.816;8.902;2024-03-23T11:12:30;8.50;99.90
22558;DHT22;11445;53.816;8.902;2024-03-23T11:15:05;8.40;99.90
22558;DHT22;11445;53.816;8.902;2024-03-23T11:17:32;8.40;99.90
22558;DHT22;11445;53.816;8.902;2024-03-23T11:19:59;8.40;99.90
22558;DHT22;11445;53.816;8.902;2024-03-23T11:22:42;8.40;99.90
22558;DHT22;11445;53.816;8.902;2024-03-23T11:25:16;8.40;99.90
22558;DHT22;11445;53.816;8.902;2024-03-23T11:27:44;8.30;99.90
22558;DHT22;11445;53.816;8.902;2024-03-23T11:30:13;8.30;99.90
22558;DHT22;11445;53.816;8.902;2024-03-23T11:32:41;8.30;99.90
22558;DHT22;11445;53.816;8.902;2024-03-23T11:35:08;8.30;99.90
22558;DHT22;11445;53.816;8.902;2024-03-23T11:37:39;8.30;99.90
22558;DHT22;11445;53.816;8.902;2024-03-23T11:40:20;8.40;99.90
22558;DHT22;11445;53.816;8.902;2024-03-23T11:42:47;8.40;99.90
22558;DHT22;11445;53.816;8.902;2024-03-23T11:45:22;8.50;99.90
22558;DHT22;11445;53.816;8.902;2024-03-23T11:48:00;8.60;99.90
22558;DHT22;11445;53.816;8.902;2024-03-23T11:50:27;8.70;99.90
22558;DHT22;11445;53.816;8.902;2024-03-23T11:53:15;8.70;99.90
22558;DHT22;11445;53.816;8.902;2024-03-23T11:55:46;8.70;99.90
22558;DHT22;11445;53.816;8.902;2024-03-23T11:58:14;8.60;99.90
22558;DHT22;11445;53.816;8.902;2024-03-23T12:00:41;8.60;99.90
22558;DHT22;11445;53.816;8.902;2024-03-23T12:03:08;8.50;99.90
22558;DHT22;11445;53.816;8.902;2024-03-23T12:05:36;8.40;99.90
22558;DHT22;11445;53.816;8.902;2024-03-23T12:08:20;8.20;99.90
22558;DHT22;11445;53.816;8.902;2024-03-23T12:10:49;8.40;99.90
22558;DHT22;11445;53.816;8.902;2024-03-23T12:13:17;8.30;99.90
22558;DHT22;11445;53.816;8.902;2024-03-23T12:15:46;8.20;99.90
22558;DHT22;11445;53.816;8.902;2024-03-23T12:18:13;8.00;99.90
22558;DHT22;11445;53.816;8.902;2024-03-23T12:20:40;8.00;99.90
22558;DHT22;11445;53.816;8.902;2024-03-23T12:23:08;7.90;99.90
22558;DHT22;11445;53.816;8.902;2024-03-23T12:25:36;7.90;99.90
22558;DHT22;11445;53.816;8.902;2024-03-23T12:28:03;7.80;99.90
22558;DHT22;11445;53.816;8.902;2024-03-23T12:30:32;7.80;99.90
22558;DHT22;11445;53.816;8.902;2024-03-23T12:33:01;7.90;99.90
22558;DHT22;11445;53.816;8.902;2024-03-23T12:35:27;8.00;99.90
22558;DHT22;11445;53.816;8.902;2024-03-23T12:37:54;8.20;99.90
22558;DHT22;11445;53.816;8.902;2024-03-23T12:40:20;8.40;99.90
22558;DHT22;11445;53.816;8.902;2024-03-23T12:42:47;8.60;99.90
22558;DHT22;11445;53.816;8.902;2024-03-23T12:45:14;8.80;99.90
22558;DHT22;11445;53.816;8.902;2024-03-23T12:47:40;8.90;99.90
22558;DHT22;11445;53.816;8.902;2024-03-23T12:50:09;8.90;99.90
22558;DHT22;11445;53.816;8.902;2024-03-23T12:52:35;8.80;99.90
22558;DHT22;11445;53.816;8.902;2024-03-23T12:55:02;8.70;99.90
22558;DHT22;11445;53.816;8.902;2024-03-23T12:57:30;8.70;99.90
22558;DHT22;11445;53.816;8.902;2024-03-23T12:59:58;8.40;99.90
22558;DHT22;11445;53.816;8.902;2024-03-23T13:02:24;8.00;99.90
22558;DHT22;11445;53.816;8.902;2024-03-23T13:04:52;7.80;99.90
22558;DHT22;11445;53.816;8.902;2024-03-23T13:07:20;7.80;99.90
22558;DHT22;11445;53.816;8.902;2024-03-23T13:09:50;7.80;99.90
22558;DHT22;11445;53.816;8.902;2024-03-23T13:12:16;7.80;99.90
22558;DHT22;11445;53.816;8.902;2024-03-23T13:14:44;7.90;99.90
22558;DHT22;11445;53.816;8.902;2024-03-23T13:17:10;8.00;99.90
22558;DHT22;11445;53.816;8.902;2024-03-23T13:19:37;8.00;99.90
22558;DHT22;11445;53.816;8.902;2024-03-23T13:22:03;8.10;99.90
22558;DHT22;11445;53.816;8.902;2024-03-23T13:24:32;8.20;99.90
22558;DHT22;11445;53.816;8.902;2024-03-23T13:26:58;8.30;99.90
22558;DHT22;11445;53.816;8.902;2024-03-23T13:29:25;8.40;99.90
22558;DHT22;11445;53.816;8.902;2024-03-23T13:31:52;8.40;99.90
22558;DHT22;11445;53.816;8.902;2024-03-23T13:34:19;8.50;99.90
22558;DHT22;11445;53.816;8.902;2024-03-23T13:36:46;8.60;99.90
22558;DHT22;11445;53.816;8.902;2024-03-23T13:39:14;8.60;99.90
22558;DHT22;11445;53.816;8.902;2024-03-23T13:41:43;8.60;99.90
22558;DHT22;11445;53.816;8.902;2024-03-23T13:44:12;8.50;99.90
22558;DHT22;11445;53.816;8.902;2024-03-23T13:46:39;8.50;99.90
22558;DHT22;11445;53.816;8.902;2024-03-23T13:49:06;8.40;99.90
22558;DHT22;11445;53.816;8.902;2024-03-23T13:51:32;8.40;99.90
22558;DHT22;11445;53.816;8.902;2024-03-23T13:54:00;8.50;99.90
22558;DHT22;11445;53.816;8.902;2024-03-23T13:56:26;8.50;99.90
22558;DHT22;11445;53.816;8.902;2024-03-23T13:58:56;8.60;99.90
22558;DHT22;11445;53.816;8.902;2024-03-23T14:01:22;8.70;99.90
22558;DHT22;11445;53.816;8.902;2024-03-23T14:03:50;8.80;99.90
22558;DHT22;11445;53.816;8.902;2024-03-23T14:06:16;9.00;99.90
22558;DHT22;11445;53.816;8.902;2024-03-23T14:08:43;9.00;99.90
22558;DHT22;11445;53.816;8.902;2024-03-23T14:11:09;9.10;99.90
22558;DHT22;11445;53.816;8.902;2024-03-23T14:13:36;9.20;99.90
22558;DHT22;11445;53.816;8.902;2024-03-23T14:16:04;9.30;99.90
22558;DHT22;11445;53.816;8.902;2024-03-23T14:18:31;9.30;99.90
22558;DHT22;11445;53.816;8.902;2024-03-23T14:20:58;9.20;99.90
22558;DHT22;11445;53.816;8.902;2024-03-23T14:23:26;9.10;99.90
22558;DHT22;11445;53.816;8.902;2024-03-23T14:25:55;9.20;99.90
22558;DHT22;11445;53.816;8.902;2024-03-23T14:28:22;9.20;99.90
22558;DHT22;11445;53.816;8.902;2024-03-23T14:30:48;9.30;99.90
22558;DHT22;11445;53.816;8.902;2024-03-23T14:33:18;9.20;99.90
22558;DHT22;11445;53.816;8.902;2024-03-23T14:35:51;9.20;99.90
22558;DHT22;11445;53.816;8.902;2024-03-23T14:38:18;9.20;99.90
22558;DHT22;11445;53.816;8.902;2024-03-23T14:40:44;9.10;99.90
22558;DHT22;11445;53.816;8.902;2024-03-23T14:43:11;8.90;99.90
22558;DHT22;11445;53.816;8.902;2024-03-23T14:45:37;8.80;99.90
22558;DHT22;11445;53.816;8.902;2024-03-23T14:48:05;8.80;99.90
22558;DHT22;11445;53.816;8.902;2024-03-23T14:50:32;8.80;99.90
22558;DHT22;11445;53.816;8.902;2024-03-23T14:53:00;8.80;99.90
22558;DHT22;11445;53.816;8.902;2024-03-23T14:55:26;8.80;99.90
22558;DHT22;11445;53.816;8.902;2024-03-23T14:57:54;8.80;99.90
22558;DHT22;11445;53.816;8.902;2024-03-23T15:00:20;8.60;99.90
22558;DHT22;11445;53.816;8.902;2024-03-23T15:02:47;8.60;99.90
22558;DHT22;11445;53.816;8.902;2024-03-23T15:05:14;8.50;99.90
22558;DHT22;11445;53.816;8.902;2024-03-23T15:07:42;8.40;99.90
22558;DHT22;11445;53.816;8.902;2024-03-23T15:10:08;8.30;99.90
22558;DHT22;11445;53.816;8.902;2024-03-23T15:12:35;8.20;99.90
22558;DHT22;11445;53.816;8.902;2024-03-23T15:15:01;8.10;99.90
22558;DHT22;11445;53.816;8.902;2024-03-23T15:17:28;8.10;99.90
22558;DHT22;11445;53.816;8.902;2024-03-23T15:19:55;8.10;99.90
22558;DHT22;11445;53.816;8.902;2024-03-23T15:22:25;8.10;99.90
22558;DHT22;11445;53.816;8.902;2024-03-23T15:24:52;8.20;99.90
22558;DHT22;11445;53.816;8.902;2024-03-23T15:27:19;8.30;99.90
22558;DHT22;11445;53.816;8.902;2024-03-23T15:29:45;8.40;99.90
22558;DHT22;11445;53.816;8.902;2024-03-23T15:32:12;8.40;99.90
22558;DHT22;11445;53.816;8.902;2024-03-23T15:34:40;8.40;99.90
22558;DHT22;11445;53.816;8.902;2024-03-23T15:37:06;8.40;99.90
22558;DHT22;11445;53.816;8.902;2024-03-23T15:39:32;8.20;99.90
22558;DHT22;11445;53.816;8.902;2024-03-23T15:42:01;8.10;99.90
22558;DHT22;11445;53.816;8.902;2024-03-23T15:44:27;8.00;99.90
22558;DHT22;11445;53.816;8.902;2024-03-23T15:46:54;8.00;99.90
22558;DHT22;11445;53.816;8.902;2024-03-23T15:49:20;7.90;99.90
22558;DHT22;11445;53.816;8.902;2024-03-23T15:51:47;7.80;99.90
22558;DHT22;11445;53.816;8.902;2024-03-23T15:54:13;7.80;99.90
22558;DHT22;11445;53.816;8.902;2024-03-23T15:56:40;7.70;99.90
22558;DHT22;11445;53.816;8.902;2024-03-23T15:59:07;7.70;99.90
22558;DHT22;11445;53.816;8.902;2024-03-23T16:01:34;7.70;99.90
22558;DHT22;11445;53.816;8.902;2024-03-23T16:04:00;7.60;99.90
22558;DHT22;11445;53.816;8.902;2024-03-23T16:06:28;7.60;99.90
22558;DHT22;11445;53.816;8.902;2024-03-23T16:08:54;7.70;99.90
22558;DHT22;11445;53.816;8.902;2024-03-23T16:11:21;7.70;99.90
22558;DHT22;11445;53.816;8.902;2024-03-23T16:13:47;7.70;99.90
22558;DHT22;11445;53.816;8.902;2024-03-23T16:16:15;7.80;99.90
22558;DHT22;11445;53.816;8.902;2024-03-23T16:18:41;7.80;99.90
22558;DHT22;11445;53.816;8.902;2024-03-23T16:21:09;7.80;99.90
22558;DHT22;11445;53.816;8.902;2024-03-23T16:23:36;7.70;99.90
22558;DHT22;11445;53.816;8.902;2024-03-23T16:26:04;7.60;99.90
22558;DHT22;11445;53.816;8.902;2024-03-23T16:28:31;7.60;99.90
22558;DHT22;11445;53.816;8.902;2024-03-23T16:31:00;7.50;99.90
22558;DHT22;11445;53.816;8.902;2024-03-23T16:33:28;7.50;99.90
22558;DHT22;11445;53.816;8.902;2024-03-23T16:35:58;7.40;99.90
22558;DHT22;11445;53.816;8.902;2024-03-23T16:38:24;7.40;99.90
22558;DHT22;11445;53.816;8.902;2024-03-23T16:40:58;7.30;99.90